Time;durP1;ratioP1;P1;durP2;ratioP2;P2;SDS_P1;SDS_P2;PMS_P1;PMS_P2;Temp;Humidity;BMP_temperature;BMP_pressure;BME280_temperature;BME280_humidity;BME280_pressure;Samples;Min_cycle;Max_cycle;Signal;HPM_P1;HPM_P2
2021/12/21 00:00:12;;;;;;;20.83;9.60;;;;;;;;;;5070793;28;20217;-70
2021/12/21 00:02:39;;;;;;;13.80;8.67;;;;;;;;;;5069023;28;20233;-70
2021/12/21 00:05:06;;;;;;;13.33;8.07;;;;;;;;;;5066824;28;20269;-70
2021/12/21 00:07:32;;;;;;;17.43;9.30;;;;;;;;;;5069541;28;20214;-70
2021/12/21 00:10:00;;;;;;;17.73;8.57;;;;;;;;;;5068814;28;20277;-70
2021/12/21 00:12:30;;;;;;;16.80;8.63;;;;;;;;;;5067747;28;20969;-70
2021/12/21 00:15:01;;;;;;;13.67;8.27;;;;;;;;;;5068454;28;20210;-70
2021/12/21 00:20:25;;;;;;;15.87;7.87;;;;;;;;;;5070295;28;20219;-70
2021/12/21 00:25:48;;;;;;;13.23;8.73;;;;;;;;;;5018476;28;20330;-70
2021/12/21 00:28:15;;;;;;;25.10;9.10;;;;;;;;;;5056604;28;20249;-70
2021/12/21 00:30:41;;;;;;;16.73;9.27;;;;;;;;;;5068756;28;20301;-70
2021/12/21 00:33:08;;;;;;;16.17;9.33;;;;;;;;;;5069430;28;20232;-70
2021/12/21 00:35:34;;;;;;;15.17;8.77;;;;;;;;;;5069193;28;20645;-70
2021/12/21 00:38:03;;;;;;;12.73;8.10;;;;;;;;;;5071425;28;20628;-70
2021/12/21 00:40:29;;;;;;;14.03;8.60;;;;;;;;;;5068282;28;20515;-70
2021/12/21 00:42:57;;;;;;;12.97;8.57;;;;;;;;;;5067952;28;20213;-70
2021/12/21 00:45:24;;;;;;;16.37;9.73;;;;;;;;;;5068223;28;20255;-70
2021/12/21 00:47:50;;;;;;;9.93;7.63;;;;;;;;;;5068571;28;21121;-70
2021/12/21 00:50:19;;;;;;;16.57;8.20;;;;;;;;;;5068420;28;20895;-70
2021/12/21 00:52:47;;;;;;;15.87;8.87;;;;;;;;;;5069619;28;20225;-70
2021/12/21 00:55:13;;;;;;;14.07;8.77;;;;;;;;;;5069125;28;20218;-71
2021/12/21 00:57:40;;;;;;;15.73;8.27;;;;;;;;;;5068747;28;21108;-70
2021/12/21 01:00:11;;;;;;;13.60;8.07;;;;;;;;;;5069781;28;20817;-70
2021/12/21 01:02:38;;;;;;;12.47;7.77;;;;;;;;;;5069305;28;20225;-70
2021/12/21 01:05:12;;;;;;;12.70;9.17;;;;;;;;;;5068842;28;20210;-70
2021/12/21 01:07:42;;;;;;;10.17;8.77;;;;;;;;;;5068299;28;20296;-70
2021/12/21 01:13:08;;;;;;;14.10;8.77;;;;;;;;;;5069575;28;20220;-70
2021/12/21 01:15:50;;;;;;;13.00;7.63;;;;;;;;;;5069125;28;20211;-70
2021/12/21 01:18:21;;;;;;;15.33;8.07;;;;;;;;;;5068268;28;20580;-70
2021/12/21 01:20:51;;;;;;;16.23;8.73;;;;;;;;;;5069849;28;20303;-72
2021/12/21 01:23:47;;;;;;;12.40;7.87;;;;;;;;;;5069866;28;20633;-70
2021/12/21 01:26:20;;;;;;;11.43;7.37;;;;;;;;;;5069914;28;20232;-72
2021/12/21 01:28:53;;;;;;;14.17;8.13;;;;;;;;;;5067514;28;20219;-72
2021/12/21 01:31:28;;;;;;;13.20;8.57;;;;;;;;;;5069939;28;20242;-72
2021/12/21 01:34:08;;;;;;;14.37;8.47;;;;;;;;;;5068889;28;20225;-72
2021/12/21 01:36:40;;;;;;;13.40;8.23;;;;;;;;;;5067948;28;20219;-69
2021/12/21 01:39:15;;;;;;;17.47;7.90;;;;;;;;;;5069010;28;20305;-72
2021/12/21 01:41:51;;;;;;;12.70;7.57;;;;;;;;;;5068143;28;20371;-72
2021/12/21 01:44:32;;;;;;;17.80;8.87;;;;;;;;;;5068775;28;20213;-70
2021/12/21 01:49:49;;;;;;;12.33;8.43;;;;;;;;;;5067841;28;20921;-70
2021/12/21 01:52:18;;;;;;;13.60;8.47;;;;;;;;;;5068264;28;21209;-70
2021/12/21 01:54:45;;;;;;;13.07;8.10;;;;;;;;;;5072838;28;20866;-70
2021/12/21 01:57:12;;;;;;;14.50;8.77;;;;;;;;;;5071556;28;20656;-70
2021/12/21 01:59:39;;;;;;;17.07;8.50;;;;;;;;;;5071558;28;20266;-70
2021/12/21 02:02:09;;;;;;;16.83;8.73;;;;;;;;;;5073406;28;20230;-70
2021/12/21 02:04:36;;;;;;;14.80;7.90;;;;;;;;;;5070990;28;20701;-70
2021/12/21 02:07:03;;;;;;;11.57;8.13;;;;;;;;;;5073522;28;20210;-70
2021/12/21 02:09:33;;;;;;;10.93;7.07;;;;;;;;;;5071495;28;20258;-70
2021/12/21 02:11:59;;;;;;;11.90;7.90;;;;;;;;;;5070865;28;20214;-70
2021/12/21 02:14:26;;;;;;;10.80;7.37;;;;;;;;;;5070098;28;20214;-70
2021/12/21 02:17:02;;;;;;;12.13;8.67;;;;;;;;;;5071835;28;20763;-70
2021/12/21 02:19:34;;;;;;;12.50;8.63;;;;;;;;;;5072953;28;20855;-70
2021/12/21 02:22:10;;;;;;;13.53;8.97;;;;;;;;;;5071861;28;20300;-70
2021/12/21 02:24:43;;;;;;;11.47;7.57;;;;;;;;;;5069532;28;20486;-72
2021/12/21 02:27:25;;;;;;;15.20;8.57;;;;;;;;;;5072716;28;20213;-72
2021/12/21 02:29:52;;;;;;;11.83;7.93;;;;;;;;;;5071582;28;20206;-72
2021/12/21 02:32:18;;;;;;;14.07;7.90;;;;;;;;;;5071340;28;20284;-70
2021/12/21 02:34:45;;;;;;;16.23;9.23;;;;;;;;;;5071406;28;20217;-70
2021/12/21 02:37:13;;;;;;;12.70;7.93;;;;;;;;;;5072334;28;20586;-70
2021/12/21 02:39:39;;;;;;;14.80;9.17;;;;;;;;;;5070832;28;21213;-70
2021/12/21 02:42:07;;;;;;;12.47;8.40;;;;;;;;;;5071585;28;20742;-70
2021/12/21 02:44:34;;;;;;;14.57;8.67;;;;;;;;;;5070769;28;21058;-71
2021/12/21 02:47:01;;;;;;;14.33;9.70;;;;;;;;;;5072252;28;20284;-72
2021/12/21 02:49:27;;;;;;;13.50;9.43;;;;;;;;;;5071350;28;20594;-72
2021/12/21 02:51:54;;;;;;;16.07;9.10;;;;;;;;;;5071804;28;20271;-72
2021/12/21 02:54:22;;;;;;;14.90;9.33;;;;;;;;;;5072105;28;20304;-71
2021/12/21 02:56:48;;;;;;;14.37;8.73;;;;;;;;;;5072717;28;20585;-71
2021/12/21 02:59:15;;;;;;;14.73;9.37;;;;;;;;;;5071980;28;20210;-71
2021/12/21 03:01:42;;;;;;;16.93;9.20;;;;;;;;;;5069976;28;20238;-71
2021/12/21 03:04:08;;;;;;;14.67;8.67;;;;;;;;;;5069776;28;20242;-70
2021/12/21 03:07:23;;;;;;;12.70;9.70;;;;;;;;;;5070014;28;20666;-70
2021/12/21 03:09:57;;;;;;;17.70;8.77;;;;;;;;;;5069793;28;20341;-71
2021/12/21 03:15:31;;;;;;;14.10;9.93;;;;;;;;;;5088019;27;20574;-71
2021/12/21 03:17:58;;;;;;;13.80;8.87;;;;;;;;;;5087642;28;20210;-71
2021/12/21 03:20:25;;;;;;;12.87;8.87;;;;;;;;;;5086133;28;20220;-71
2021/12/21 03:22:52;;;;;;;12.20;9.20;;;;;;;;;;5086306;28;20198;-71
2021/12/21 03:25:19;;;;;;;13.00;7.83;;;;;;;;;;5087856;28;20485;-71
2021/12/21 03:27:45;;;;;;;14.13;9.97;;;;;;;;;;5087043;28;20246;-71
2021/12/21 03:30:14;;;;;;;13.40;9.10;;;;;;;;;;5086619;28;20229;-71
2021/12/21 03:32:42;;;;;;;16.90;9.83;;;;;;;;;;5086170;28;20290;-71
2021/12/21 03:35:10;;;;;;;13.47;9.43;;;;;;;;;;5087394;28;20258;-71
2021/12/21 03:37:37;;;;;;;14.13;9.47;;;;;;;;;;5086577;28;20409;-71
2021/12/21 03:40:05;;;;;;;14.97;9.00;;;;;;;;;;5085924;28;20640;-71
2021/12/21 03:42:32;;;;;;;11.23;7.83;;;;;;;;;;5086683;28;20258;-71
2021/12/21 03:44:58;;;;;;;15.60;9.17;;;;;;;;;;5084217;28;20211;-71
2021/12/21 03:47:25;;;;;;;13.07;8.80;;;;;;;;;;5085358;28;20224;-71
2021/12/21 03:49:57;;;;;;;10.70;8.33;;;;;;;;;;5086167;28;20755;-71
2021/12/21 03:52:26;;;;;;;13.63;8.63;;;;;;;;;;5084355;28;20215;-71
2021/12/21 03:54:55;;;;;;;13.17;8.87;;;;;;;;;;5084819;28;20273;-71
2021/12/21 03:57:21;;;;;;;13.37;8.67;;;;;;;;;;5086314;28;20219;-71
2021/12/21 03:59:49;;;;;;;16.13;8.77;;;;;;;;;;5084645;28;20234;-71
2021/12/21 04:02:16;;;;;;;18.23;10.50;;;;;;;;;;5084353;28;20231;-71
2021/12/21 04:04:44;;;;;;;13.67;9.37;;;;;;;;;;5086275;28;20202;-71
2021/12/21 04:07:12;;;;;;;16.20;9.27;;;;;;;;;;5086044;28;20651;-71
2021/12/21 04:09:39;;;;;;;15.00;9.23;;;;;;;;;;5084389;28;20291;-70
2021/12/21 04:12:06;;;;;;;10.93;8.93;;;;;;;;;;5086751;28;20209;-73
2021/12/21 04:14:33;;;;;;;13.47;9.03;;;;;;;;;;5085818;28;20240;-73
2021/12/21 04:17:00;;;;;;;15.27;10.00;;;;;;;;;;5086332;28;20584;-73
2021/12/21 04:19:26;;;;;;;15.07;9.03;;;;;;;;;;5086349;28;20210;-70
2021/12/21 04:21:52;;;;;;;11.77;9.37;;;;;;;;;;5085093;28;20696;-70
2021/12/21 04:24:20;;;;;;;14.77;9.93;;;;;;;;;;5082956;28;20583;-73
2021/12/21 04:26:47;;;;;;;15.23;9.60;;;;;;;;;;5070578;28;20233;-73
2021/12/21 04:29:13;;;;;;;14.10;9.33;;;;;;;;;;5074253;28;20218;-73
2021/12/21 04:31:40;;;;;;;12.10;8.70;;;;;;;;;;5070573;28;20287;-73
2021/12/21 04:34:07;;;;;;;13.00;9.73;;;;;;;;;;5070013;28;20236;-73
2021/12/21 04:36:33;;;;;;;15.43;9.10;;;;;;;;;;5073093;28;20260;-73
2021/12/21 04:39:03;;;;;;;15.53;9.10;;;;;;;;;;5071281;28;20247;-73
2021/12/21 04:41:31;;;;;;;12.27;8.50;;;;;;;;;;5071706;28;20604;-73
2021/12/21 04:43:59;;;;;;;15.07;9.33;;;;;;;;;;5071465;28;20288;-73
2021/12/21 04:46:28;;;;;;;18.33;9.27;;;;;;;;;;5071225;28;20677;-70
2021/12/21 04:48:55;;;;;;;12.93;9.20;;;;;;;;;;5071480;28;20239;-70
2021/12/21 04:51:21;;;;;;;17.40;9.33;;;;;;;;;;5072718;28;20279;-71
2021/12/21 04:53:48;;;;;;;13.87;9.50;;;;;;;;;;5072041;28;20287;-70
2021/12/21 04:56:14;;;;;;;14.50;9.53;;;;;;;;;;5070065;28;20225;-73
2021/12/21 04:58:42;;;;;;;13.87;9.43;;;;;;;;;;5071773;28;20219;-70
2021/12/21 05:01:09;;;;;;;14.07;9.27;;;;;;;;;;5070420;28;20277;-70
2021/12/21 05:03:35;;;;;;;14.50;9.97;;;;;;;;;;5069691;28;20208;-73
2021/12/21 05:06:02;;;;;;;14.97;9.20;;;;;;;;;;5071269;28;20240;-71
2021/12/21 05:08:32;;;;;;;16.17;9.97;;;;;;;;;;5069526;28;20215;-71
2021/12/21 05:11:02;;;;;;;16.07;10.83;;;;;;;;;;5071829;28;21044;-71
2021/12/21 05:13:31;;;;;;;13.50;10.13;;;;;;;;;;5070899;28;20233;-71
2021/12/21 05:16:00;;;;;;;16.87;10.50;;;;;;;;;;5070631;28;20229;-71
2021/12/21 05:18:27;;;;;;;13.33;9.67;;;;;;;;;;5071396;28;20553;-71
2021/12/21 05:20:54;;;;;;;13.87;10.50;;;;;;;;;;5072480;28;20211;-71
2021/12/21 05:23:21;;;;;;;17.20;10.50;;;;;;;;;;5070303;28;20292;-71
2021/12/21 05:25:47;;;;;;;15.63;10.20;;;;;;;;;;5068512;28;20271;-71
2021/12/21 05:28:15;;;;;;;15.57;10.60;;;;;;;;;;5070739;28;20262;-71
2021/12/21 05:30:42;;;;;;;16.50;11.70;;;;;;;;;;5071019;28;20511;-74
2021/12/21 05:33:11;;;;;;;18.50;10.70;;;;;;;;;;5068776;28;21180;-74
2021/12/21 05:35:38;;;;;;;16.07;10.80;;;;;;;;;;5070785;28;20224;-74
2021/12/21 05:38:07;;;;;;;19.57;11.33;;;;;;;;;;5068830;28;21152;-74
2021/12/21 05:40:37;;;;;;;16.40;11.80;;;;;;;;;;5070248;28;20260;-74
2021/12/21 05:43:04;;;;;;;17.13;10.77;;;;;;;;;;5071151;28;20224;-75
2021/12/21 05:45:31;;;;;;;17.27;10.77;;;;;;;;;;5070792;28;20223;-75
2021/12/21 05:47:58;;;;;;;15.77;10.63;;;;;;;;;;5070351;28;20207;-74
2021/12/21 05:50:26;;;;;;;18.33;10.90;;;;;;;;;;5070807;28;20236;-75
2021/12/21 05:52:52;;;;;;;16.70;11.70;;;;;;;;;;5070902;28;20432;-75
2021/12/21 05:55:20;;;;;;;16.93;11.00;;;;;;;;;;5071324;28;20242;-75
2021/12/21 05:57:47;;;;;;;18.77;12.63;;;;;;;;;;5068782;28;20355;-75
2021/12/21 06:00:16;;;;;;;19.00;12.00;;;;;;;;;;5069807;28;20211;-75
2021/12/21 06:02:44;;;;;;;15.20;11.93;;;;;;;;;;5070287;28;20711;-75
2021/12/21 06:05:10;;;;;;;16.40;11.27;;;;;;;;;;5069993;28;20266;-76
2021/12/21 06:07:39;;;;;;;16.17;10.73;;;;;;;;;;5070012;28;20210;-75
2021/12/21 06:10:12;;;;;;;21.10;11.93;;;;;;;;;;5070356;28;20233;-77
2021/12/21 06:12:56;;;;;;;15.80;10.90;;;;;;;;;;5069517;28;20685;-75
2021/12/21 06:15:32;;;;;;;22.90;11.77;;;;;;;;;;5070602;28;20301;-75
2021/12/21 06:26:22;;;;;;;20.83;11.87;;;;;;;;;;5067129;28;20748;-75
2021/12/21 06:28:49;;;;;;;20.67;13.10;;;;;;;;;;5068423;28;20347;-75
2021/12/21 06:31:16;;;;;;;21.37;13.63;;;;;;;;;;5068909;28;20227;-74
2021/12/21 06:33:43;;;;;;;17.40;13.20;;;;;;;;;;5066269;28;20217;-75
2021/12/21 06:36:10;;;;;;;19.33;12.50;;;;;;;;;;5067112;28;20223;-74
2021/12/21 06:38:38;;;;;;;17.17;13.43;;;;;;;;;;5069293;28;20214;-75
2021/12/21 06:41:05;;;;;;;16.17;11.90;;;;;;;;;;5068703;28;20814;-74
2021/12/21 06:43:33;;;;;;;20.07;12.37;;;;;;;;;;5066967;28;20214;-75
2021/12/21 06:46:06;;;;;;;20.67;13.03;;;;;;;;;;5068598;28;20223;-74
2021/12/21 06:51:20;;;;;;;17.60;12.33;;;;;;;;;;5071488;28;20237;-74
2021/12/21 06:53:51;;;;;;;20.47;13.60;;;;;;;;;;5069649;28;20215;-74
2021/12/21 06:56:19;;;;;;;21.93;13.20;;;;;;;;;;5069965;28;20283;-73
2021/12/21 06:58:45;;;;;;;21.97;12.70;;;;;;;;;;5068990;28;20724;-74
2021/12/21 07:01:13;;;;;;;16.27;12.10;;;;;;;;;;5067606;28;20229;-74
2021/12/21 07:03:41;;;;;;;17.30;12.70;;;;;;;;;;5069461;28;20211;-74
2021/12/21 07:06:09;;;;;;;21.33;14.10;;;;;;;;;;5068756;28;20611;-75
2021/12/21 07:08:45;;;;;;;18.73;13.07;;;;;;;;;;5067655;28;20216;-76
2021/12/21 07:11:19;;;;;;;18.73;12.43;;;;;;;;;;5068821;28;20290;-76
2021/12/21 07:19:14;;;;;;;20.47;13.90;;;;;;;;;;5066627;28;20474;-76
2021/12/21 07:21:41;;;;;;;18.27;13.37;;;;;;;;;;5066312;28;20218;-76
2021/12/21 07:24:07;;;;;;;17.90;13.53;;;;;;;;;;5066712;28;20261;-77
2021/12/21 07:26:35;;;;;;;20.37;14.77;;;;;;;;;;5066092;28;20223;-76
2021/12/21 07:29:02;;;;;;;27.60;16.03;;;;;;;;;;5068261;28;20209;-76
2021/12/21 07:31:29;;;;;;;19.73;14.23;;;;;;;;;;5066173;28;20233;-76
2021/12/21 07:33:58;;;;;;;24.00;15.00;;;;;;;;;;5066409;28;20346;-74
2021/12/21 07:36:24;;;;;;;24.03;16.07;;;;;;;;;;5065757;28;20883;-74
2021/12/21 07:38:50;;;;;;;18.10;14.10;;;;;;;;;;5066724;28;20217;-76
2021/12/21 07:41:17;;;;;;;22.10;14.57;;;;;;;;;;5064675;28;20918;-75
2021/12/21 07:43:45;;;;;;;22.27;13.70;;;;;;;;;;5066706;28;20223;-75
2021/12/21 07:46:12;;;;;;;19.87;14.07;;;;;;;;;;5065564;28;20294;-74
2021/12/21 07:48:40;;;;;;;23.27;15.23;;;;;;;;;;5065112;28;20764;-74
2021/12/21 07:51:07;;;;;;;22.77;15.17;;;;;;;;;;5067175;28;20213;-74
2021/12/21 07:53:34;;;;;;;20.10;13.93;;;;;;;;;;5068093;28;20210;-74
2021/12/21 07:56:02;;;;;;;19.37;14.33;;;;;;;;;;5065761;28;20243;-74
2021/12/21 07:58:30;;;;;;;18.50;12.93;;;;;;;;;;5066290;28;20215;-74
2021/12/21 08:00:58;;;;;;;19.53;13.60;;;;;;;;;;5066443;28;20230;-75
2021/12/21 08:03:25;;;;;;;19.37;12.77;;;;;;;;;;5069416;28;20587;-75
2021/12/21 08:05:54;;;;;;;18.10;13.73;;;;;;;;;;5070838;28;20235;-74
2021/12/21 08:08:23;;;;;;;27.13;16.17;;;;;;;;;;5070348;28;20223;-74
2021/12/21 08:10:53;;;;;;;24.40;17.87;;;;;;;;;;5069029;28;20231;-74
2021/12/21 08:13:20;;;;;;;21.70;16.30;;;;;;;;;;5069381;28;20264;-74
2021/12/21 08:15:47;;;;;;;24.03;17.57;;;;;;;;;;5070941;28;20264;-74
2021/12/21 08:18:15;;;;;;;24.27;19.23;;;;;;;;;;5069907;28;20692;-74
2021/12/21 08:20:42;;;;;;;23.23;17.50;;;;;;;;;;5069425;28;20627;-74
2021/12/21 08:23:09;;;;;;;21.00;17.80;;;;;;;;;;5071755;28;20396;-76
2021/12/21 08:25:37;;;;;;;31.50;21.00;;;;;;;;;;5068938;28;20229;-74
2021/12/21 08:28:06;;;;;;;26.70;19.37;;;;;;;;;;5070857;28;20209;-75
2021/12/21 08:30:32;;;;;;;25.90;19.50;;;;;;;;;;5069822;28;20229;-75
2021/12/21 08:32:59;;;;;;;28.47;18.93;;;;;;;;;;5070474;28;20224;-75
2021/12/21 08:35:28;;;;;;;25.23;17.33;;;;;;;;;;5056880;28;20236;-75
2021/12/21 08:38:02;;;;;;;24.80;16.53;;;;;;;;;;5070931;28;20779;-75
2021/12/21 08:40:36;;;;;;;24.37;16.90;;;;;;;;;;5067782;28;20274;-75
2021/12/21 08:43:03;;;;;;;26.87;16.20;;;;;;;;;;5068449;28;20281;-75
2021/12/21 08:45:32;;;;;;;24.77;16.07;;;;;;;;;;5069482;28;20654;-75
2021/12/21 08:47:59;;;;;;;23.60;15.47;;;;;;;;;;5071027;28;20239;-75
2021/12/21 08:50:27;;;;;;;19.63;14.53;;;;;;;;;;5067769;28;20293;-76
2021/12/21 08:52:53;;;;;;;20.33;14.47;;;;;;;;;;5069499;28;20223;-75
2021/12/21 08:55:20;;;;;;;22.40;15.23;;;;;;;;;;5069695;28;20764;-75
2021/12/21 08:57:47;;;;;;;20.97;15.17;;;;;;;;;;5070109;28;20202;-77
2021/12/21 09:00:14;;;;;;;19.43;15.50;;;;;;;;;;5068588;28;20217;-76
2021/12/21 09:02:40;;;;;;;22.37;15.50;;;;;;;;;;5068536;28;20351;-76
2021/12/21 09:05:12;;;;;;;20.43;14.90;;;;;;;;;;5068067;28;20214;-76
2021/12/21 09:07:40;;;;;;;21.10;15.93;;;;;;;;;;5068557;28;20209;-76
2021/12/21 09:10:08;;;;;;;21.43;15.00;;;;;;;;;;5066464;28;20230;-76
2021/12/21 09:12:36;;;;;;;19.00;13.33;;;;;;;;;;5067907;28;20772;-76
2021/12/21 09:15:04;;;;;;;23.27;15.70;;;;;;;;;;5067621;28;20692;-76
2021/12/21 09:17:31;;;;;;;19.03;14.67;;;;;;;;;;5068672;28;20227;-76
2021/12/21 09:19:58;;;;;;;22.20;15.27;;;;;;;;;;5069607;28;20738;-75
2021/12/21 09:22:25;;;;;;;22.47;15.83;;;;;;;;;;5066225;28;20927;-75
2021/12/21 09:24:53;;;;;;;21.97;15.80;;;;;;;;;;5068243;28;20344;-77
2021/12/21 09:27:20;;;;;;;21.77;17.07;;;;;;;;;;5066946;28;20243;-77
2021/12/21 09:29:46;;;;;;;21.87;16.93;;;;;;;;;;5068307;28;20229;-77
2021/12/21 09:32:15;;;;;;;20.07;16.60;;;;;;;;;;5067368;28;20226;-75
2021/12/21 09:34:42;;;;;;;22.33;18.63;;;;;;;;;;5069183;28;20205;-77
2021/12/21 09:37:15;;;;;;;25.33;19.50;;;;;;;;;;5070289;28;20763;-76
2021/12/21 09:39:41;;;;;;;23.80;19.87;;;;;;;;;;5068069;28;20240;-76
2021/12/21 09:42:09;;;;;;;30.80;20.97;;;;;;;;;;5068899;28;20780;-76
2021/12/21 09:44:36;;;;;;;24.37;20.00;;;;;;;;;;5066934;28;20218;-75
2021/12/21 09:47:02;;;;;;;29.50;20.83;;;;;;;;;;5069621;28;20271;-75
2021/12/21 09:49:29;;;;;;;26.40;20.97;;;;;;;;;;5067468;28;20284;-75
2021/12/21 09:51:55;;;;;;;26.27;21.07;;;;;;;;;;5067068;28;20209;-76
2021/12/21 09:54:22;;;;;;;24.83;19.53;;;;;;;;;;5067464;28;20265;-76
2021/12/21 09:56:49;;;;;;;28.63;21.93;;;;;;;;;;5068364;28;20745;-76
2021/12/21 09:59:16;;;;;;;26.67;19.87;;;;;;;;;;5067506;28;20987;-76
2021/12/21 10:01:43;;;;;;;26.37;21.57;;;;;;;;;;5067434;28;20698;-76
2021/12/21 10:04:10;;;;;;;26.63;22.83;;;;;;;;;;5068361;28;20236;-76
2021/12/21 10:06:47;;;;;;;26.87;22.20;;;;;;;;;;5069389;28;20637;-76
2021/12/21 10:09:14;;;;;;;26.70;21.20;;;;;;;;;;5071141;28;20297;-78
2021/12/21 10:11:47;;;;;;;24.30;21.70;;;;;;;;;;5071724;28;20229;-78
2021/12/21 10:14:14;;;;;;;32.73;21.43;;;;;;;;;;5072459;28;20696;-78
2021/12/21 10:16:42;;;;;;;32.90;18.90;;;;;;;;;;5072303;28;20325;-78
2021/12/21 10:19:09;;;;;;;24.33;17.63;;;;;;;;;;5072352;28;21070;-78
2021/12/21 10:21:45;;;;;;;21.60;17.77;;;;;;;;;;5071632;28;20841;-78
2021/12/21 10:24:23;;;;;;;23.87;20.80;;;;;;;;;;5071293;28;20233;-78
2021/12/21 10:26:51;;;;;;;22.73;20.33;;;;;;;;;;5072871;28;20210;-78
2021/12/21 10:29:18;;;;;;;18.83;16.73;;;;;;;;;;5072266;28;20230;-80
2021/12/21 10:31:48;;;;;;;23.03;18.10;;;;;;;;;;5070247;28;20230;-78
2021/12/21 10:34:16;;;;;;;25.87;22.23;;;;;;;;;;5072928;28;21223;-78
2021/12/21 10:36:43;;;;;;;19.17;17.20;;;;;;;;;;5069983;28;20230;-77
2021/12/21 10:39:10;;;;;;;18.47;13.03;;;;;;;;;;5067072;28;20373;-77
2021/12/21 10:41:40;;;;;;;16.97;13.37;;;;;;;;;;5066928;28;20224;-77
2021/12/21 10:44:08;;;;;;;16.20;14.13;;;;;;;;;;5067598;28;20215;-77
2021/12/21 10:46:37;;;;;;;15.03;11.73;;;;;;;;;;5066767;28;20223;-77
2021/12/21 10:49:11;;;;;;;18.00;13.53;;;;;;;;;;5069068;28;20237;-78
2021/12/21 10:51:38;;;;;;;16.53;12.33;;;;;;;;;;5071422;28;20229;-78
2021/12/21 10:54:04;;;;;;;14.63;12.23;;;;;;;;;;5070629;28;20202;-78
2021/12/21 10:56:31;;;;;;;15.83;11.67;;;;;;;;;;5071040;28;20253;-78
2021/12/21 10:58:57;;;;;;;13.10;11.73;;;;;;;;;;5069194;28;20215;-78
2021/12/21 11:01:27;;;;;;;14.43;11.63;;;;;;;;;;5068424;28;20227;-78
2021/12/21 11:03:55;;;;;;;13.27;10.93;;;;;;;;;;5067489;28;20683;-75
2021/12/21 11:06:29;;;;;;;14.50;10.43;;;;;;;;;;5067173;28;20210;-75
2021/12/21 11:08:57;;;;;;;38.87;14.33;;;;;;;;;;5067619;28;20287;-75
2021/12/21 11:11:28;;;;;;;18.07;11.07;;;;;;;;;;5066417;28;20291;-76
2021/12/21 11:14:04;;;;;;;14.17;11.30;;;;;;;;;;5064963;28;20757;-76
2021/12/21 11:16:37;;;;;;;16.73;11.33;;;;;;;;;;5065201;28;20233;-76
2021/12/21 11:19:05;;;;;;;14.37;10.73;;;;;;;;;;5069230;28;20205;-76
2021/12/21 11:21:34;;;;;;;13.17;11.47;;;;;;;;;;5064136;28;20223;-76
2021/12/21 11:24:03;;;;;;;16.50;12.33;;;;;;;;;;5067401;28;20219;-76
2021/12/21 11:26:31;;;;;;;16.07;12.73;;;;;;;;;;5065211;28;20218;-75
2021/12/21 11:29:03;;;;;;;14.43;12.40;;;;;;;;;;5067338;28;20282;-76
2021/12/21 11:31:30;;;;;;;14.23;11.57;;;;;;;;;;5066089;28;20225;-75
2021/12/21 11:33:58;;;;;;;16.63;13.53;;;;;;;;;;5068192;28;20237;-76
2021/12/21 11:39:17;;;;;;;16.20;14.53;;;;;;;;;;5058321;28;20216;-76
2021/12/21 11:41:44;;;;;;;19.30;15.20;;;;;;;;;;5069647;28;20533;-76
2021/12/21 11:44:15;;;;;;;20.03;16.67;;;;;;;;;;5070879;28;20753;-76
2021/12/21 11:46:51;;;;;;;22.20;16.70;;;;;;;;;;5071941;28;20697;-77
2021/12/21 11:49:23;;;;;;;19.13;17.03;;;;;;;;;;5070116;28;20328;-77
2021/12/21 11:51:50;;;;;;;21.73;16.50;;;;;;;;;;5070434;28;20256;-77
2021/12/21 11:54:20;;;;;;;20.13;15.60;;;;;;;;;;5070356;28;20731;-77
2021/12/21 11:56:46;;;;;;;18.63;15.77;;;;;;;;;;5071575;28;20819;-77
2021/12/21 11:59:20;;;;;;;20.13;17.53;;;;;;;;;;5072132;28;20562;-77
2021/12/21 12:01:47;;;;;;;19.87;14.53;;;;;;;;;;5070376;28;20540;-77
2021/12/21 12:04:15;;;;;;;20.50;16.17;;;;;;;;;;5071437;28;20205;-76
2021/12/21 12:06:47;;;;;;;16.73;13.10;;;;;;;;;;5073714;28;20207;-78
2021/12/21 12:09:25;;;;;;;15.03;13.43;;;;;;;;;;5078564;28;20279;-78
2021/12/21 12:11:52;;;;;;;17.10;14.77;;;;;;;;;;5076020;28;20214;-77
2021/12/21 12:14:21;;;;;;;14.43;12.93;;;;;;;;;;5074499;28;20240;-78
2021/12/21 12:16:51;;;;;;;12.97;11.63;;;;;;;;;;5073767;28;20371;-78
2021/12/21 12:19:20;;;;;;;14.60;11.53;;;;;;;;;;5074607;28;20210;-78
2021/12/21 12:21:55;;;;;;;12.77;9.73;;;;;;;;;;5074389;28;20215;-78
2021/12/21 12:24:27;;;;;;;12.57;8.70;;;;;;;;;;5073760;28;20211;-78
2021/12/21 12:26:59;;;;;;;15.43;10.80;;;;;;;;;;5076160;28;20271;-77
2021/12/21 12:29:26;;;;;;;14.17;9.97;;;;;;;;;;5070771;28;20571;-78
2021/12/21 12:32:02;;;;;;;14.03;8.40;;;;;;;;;;5074297;28;20230;-78
2021/12/21 12:34:32;;;;;;;10.43;7.03;;;;;;;;;;5071932;28;20215;-77
2021/12/21 12:36:59;;;;;;;23.43;8.17;;;;;;;;;;5078540;28;20728;-78
2021/12/21 12:39:32;;;;;;;10.70;7.97;;;;;;;;;;5070117;28;21029;-78
2021/12/21 12:42:04;;;;;;;12.00;7.90;;;;;;;;;;5073754;28;20231;-78
2021/12/21 12:44:31;;;;;;;10.53;8.10;;;;;;;;;;5073211;28;20285;-78
2021/12/21 12:47:02;;;;;;;12.23;9.50;;;;;;;;;;5071542;28;20563;-78
2021/12/21 12:49:30;;;;;;;11.40;9.33;;;;;;;;;;5071670;28;20228;-78
2021/12/21 12:52:09;;;;;;;10.00;8.90;;;;;;;;;;5071814;28;20220;-78
2021/12/21 12:54:49;;;;;;;10.50;9.47;;;;;;;;;;5071456;28;20882;-78
2021/12/21 12:57:27;;;;;;;13.27;10.43;;;;;;;;;;5071848;28;20219;-78
2021/12/21 12:59:56;;;;;;;11.90;9.63;;;;;;;;;;5072716;28;20683;-78
2021/12/21 13:02:23;;;;;;;22.20;10.60;;;;;;;;;;5072150;28;20232;-77
2021/12/21 13:04:50;;;;;;;18.93;10.57;;;;;;;;;;5070213;28;20223;-78
2021/12/21 13:07:24;;;;;;;15.53;10.50;;;;;;;;;;5072500;28;20208;-77
2021/12/21 13:10:01;;;;;;;14.77;10.27;;;;;;;;;;5076741;28;20737;-78
2021/12/21 13:12:28;;;;;;;11.70;9.87;;;;;;;;;;5083045;28;20222;-78
2021/12/21 13:14:54;;;;;;;14.77;11.27;;;;;;;;;;5089292;28;20237;-78
2021/12/21 13:17:22;;;;;;;15.17;11.43;;;;;;;;;;5090959;28;20226;-78
2021/12/21 13:19:48;;;;;;;15.53;12.27;;;;;;;;;;5095434;28;20697;-78
2021/12/21 13:22:21;;;;;;;25.73;12.60;;;;;;;;;;5102375;28;20213;-79
2021/12/21 13:24:48;;;;;;;17.50;14.03;;;;;;;;;;5096811;28;20246;-78
2021/12/21 13:27:16;;;;;;;18.33;15.97;;;;;;;;;;5100390;28;20197;-78
2021/12/21 13:29:43;;;;;;;22.23;15.47;;;;;;;;;;5100287;28;20221;-78
2021/12/21 13:32:11;;;;;;;19.07;14.77;;;;;;;;;;5101620;28;20245;-79
2021/12/21 13:34:40;;;;;;;16.73;14.97;;;;;;;;;;5104928;28;20197;-78
2021/12/21 13:37:11;;;;;;;16.60;14.57;;;;;;;;;;5100580;28;20235;-79
2021/12/21 13:39:43;;;;;;;17.50;14.57;;;;;;;;;;5101543;28;20208;-78
2021/12/21 13:42:14;;;;;;;17.07;13.10;;;;;;;;;;5104176;28;20201;-78
2021/12/21 13:44:44;;;;;;;17.03;13.33;;;;;;;;;;5101285;28;20257;-79
2021/12/21 13:47:18;;;;;;;17.80;14.43;;;;;;;;;;5101871;28;20270;-79
2021/12/21 13:50:04;;;;;;;16.60;13.77;;;;;;;;;;5097898;28;20905;-78
2021/12/21 13:52:33;;;;;;;16.50;14.47;;;;;;;;;;5102007;28;20209;-78
2021/12/21 13:55:00;;;;;;;18.53;14.10;;;;;;;;;;5099934;28;20213;-79
2021/12/21 13:57:28;;;;;;;18.00;13.83;;;;;;;;;;5099567;28;20281;-78
2021/12/21 13:59:58;;;;;;;20.77;14.87;;;;;;;;;;5100123;28;20197;-78
2021/12/21 14:02:33;;;;;;;17.30;14.10;;;;;;;;;;5101513;28;20198;-78
2021/12/21 14:05:02;;;;;;;16.07;14.30;;;;;;;;;;5102473;28;20197;-79
2021/12/21 14:07:32;;;;;;;16.73;12.93;;;;;;;;;;5099738;28;20260;-78
2021/12/21 14:10:11;;;;;;;20.80;12.13;;;;;;;;;;5103712;28;20200;-79
2021/12/21 14:12:38;;;;;;;14.53;11.67;;;;;;;;;;5105338;28;20759;-78
2021/12/21 14:15:07;;;;;;;15.27;11.57;;;;;;;;;;5103192;28;20237;-79
2021/12/21 14:17:34;;;;;;;13.27;11.33;;;;;;;;;;5101977;28;20233;-78
2021/12/21 14:20:04;;;;;;;11.93;10.20;;;;;;;;;;5103413;28;20217;-78
2021/12/21 14:22:32;;;;;;;14.97;11.13;;;;;;;;;;5102343;28;20202;-78
2021/12/21 14:24:59;;;;;;;12.53;10.73;;;;;;;;;;5102352;28;20272;-79
2021/12/21 14:27:27;;;;;;;14.87;11.97;;;;;;;;;;5103262;28;20213;-78
2021/12/21 14:30:08;;;;;;;16.93;12.03;;;;;;;;;;5105257;28;20194;-79
2021/12/21 14:33:03;;;;;;;16.63;11.90;;;;;;;;;;5103921;28;20201;-78
2021/12/21 14:35:34;;;;;;;13.63;10.20;;;;;;;;;;5102116;28;20220;-79
2021/12/21 14:38:07;;;;;;;12.33;9.20;;;;;;;;;;5104144;28;20304;-78
2021/12/21 14:40:42;;;;;;;11.03;7.70;;;;;;;;;;5100202;28;20220;-78
2021/12/21 14:43:30;;;;;;;9.13;7.43;;;;;;;;;;5102653;28;20194;-78
2021/12/21 14:45:59;;;;;;;9.90;7.87;;;;;;;;;;5102021;28;20198;-78
2021/12/21 14:48:27;;;;;;;11.07;7.87;;;;;;;;;;5103827;28;20223;-78
2021/12/21 14:51:06;;;;;;;9.60;7.77;;;;;;;;;;5102015;28;20266;-78
2021/12/21 14:53:44;;;;;;;10.27;6.97;;;;;;;;;;5098275;28;20203;-78
2021/12/21 14:56:13;;;;;;;10.30;7.50;;;;;;;;;;5102073;28;20196;-78
2021/12/21 14:58:39;;;;;;;11.10;9.00;;;;;;;;;;5103553;28;20289;-78
2021/12/21 15:01:07;;;;;;;10.53;9.33;;;;;;;;;;5102717;28;20217;-79
2021/12/21 15:03:41;;;;;;;9.83;8.13;;;;;;;;;;5101610;28;20208;-79
2021/12/21 15:06:08;;;;;;;10.50;8.23;;;;;;;;;;5104801;28;20190;-78
2021/12/21 15:08:35;;;;;;;11.17;8.43;;;;;;;;;;5103809;28;20256;-78